createdAt,value
2022-10-15T00:01:27.803Z,1.00
2022-10-15T00:03:30.625Z,1.80
2022-10-15T00:05:33.366Z,0.50
2022-10-15T00:07:36.122Z,0.50
2022-10-15T00:09:38.862Z,0.30
2022-10-15T00:11:41.590Z,0.50
2022-10-15T00:13:44.854Z,1.13
2022-10-15T00:15:47.541Z,2.20
2022-10-15T00:17:51.707Z,2.40
2022-10-15T00:19:54.411Z,2.00
2022-10-15T00:21:57.160Z,1.33
2022-10-15T00:23:59.876Z,1.17
2022-10-15T00:26:04.474Z,0.67
2022-10-15T00:28:07.203Z,0.83
2022-10-15T00:30:11.183Z,4.00
2022-10-15T00:32:14.494Z,1.00
2022-10-15T00:34:18.560Z,0.70
2022-10-15T00:36:23.230Z,1.43
2022-10-15T00:38:25.930Z,0.67
2022-10-15T00:40:28.632Z,1.13
2022-10-15T00:42:31.448Z,0.47
2022-10-15T00:44:55.325Z,0.83
2022-10-15T00:47:03.849Z,0.60
2022-10-15T00:49:14.358Z,1.80
2022-10-15T00:51:21.039Z,0.33
2022-10-15T00:53:24.260Z,0.53
2022-10-15T00:55:31.164Z,1.63
2022-10-15T00:57:34.542Z,2.00
2022-10-15T00:59:42.357Z,2.13
2022-10-15T01:01:45.459Z,1.47
2022-10-15T01:03:48.923Z,0.67
2022-10-15T01:05:54.060Z,2.60
2022-10-15T01:07:58.183Z,2.03
2022-10-15T01:10:02.255Z,1.10
2022-10-15T01:12:11.380Z,3.00
2022-10-15T01:14:29.602Z,2.57
2022-10-15T01:16:41.569Z,0.97
2022-10-15T01:18:50.103Z,0.67
2022-10-15T01:21:02.185Z,1.10
2022-10-15T01:23:30.479Z,1.10
2022-10-15T01:25:49.462Z,1.63
2022-10-15T01:27:57.751Z,2.20
2022-10-15T01:30:21.442Z,0.80
2022-10-15T01:32:29.847Z,1.27
2022-10-15T01:34:41.707Z,3.40
2022-10-15T01:36:52.133Z,1.57
2022-10-15T01:38:59.802Z,1.73
2022-10-15T01:41:11.228Z,0.40
2022-10-15T01:43:18.584Z,1.27
2022-10-15T01:45:50.536Z,0.47
2022-10-15T01:48:12.018Z,2.90
2022-10-15T01:50:17.791Z,1.00
2022-10-15T01:52:24.967Z,0.77
2022-10-15T01:54:29.449Z,3.23
2022-10-15T01:56:35.761Z,4.10
2022-10-15T01:58:42.124Z,0.50
2022-10-15T02:00:46.974Z,1.07
2022-10-15T02:02:49.831Z,1.03
2022-10-15T02:04:52.580Z,0.60
2022-10-15T02:07:04.559Z,1.50
2022-10-15T02:09:17.990Z,2.27
2022-10-15T02:11:21.026Z,0.50
2022-10-15T02:13:30.494Z,0.70
2022-10-15T02:15:37.680Z,2.00
2022-10-15T02:17:46.908Z,6.23
2022-10-15T02:19:53.038Z,2.10
2022-10-15T02:22:03.188Z,5.97
2022-10-15T02:24:10.622Z,4.00
2022-10-15T02:26:15.698Z,5.23
2022-10-15T02:28:19.687Z,4.30
2022-10-15T02:30:22.571Z,7.87
2022-10-15T02:32:28.392Z,8.00
2022-10-15T02:34:34.353Z,5.63
2022-10-15T02:36:40.754Z,3.27
2022-10-15T02:38:46.045Z,3.17
2022-10-15T02:40:49.631Z,2.10
2022-10-15T02:42:53.332Z,1.17
2022-10-15T02:44:56.053Z,1.97
2022-10-15T02:47:00.441Z,3.70
2022-10-15T02:49:03.319Z,2.73
2022-10-15T02:51:07.638Z,3.93
2022-10-15T02:53:10.604Z,1.80
2022-10-15T02:55:13.370Z,2.30
2022-10-15T02:57:16.568Z,0.80
2022-10-15T02:59:21.983Z,1.43
2022-10-15T03:01:25.957Z,0.83
2022-10-15T03:03:29.035Z,1.50
2022-10-15T03:05:32.234Z,4.83
2022-10-15T03:07:37.170Z,3.20
2022-10-15T03:09:39.964Z,2.50
2022-10-15T03:11:43.007Z,3.83
2022-10-15T03:13:45.861Z,2.53
2022-10-15T03:15:49.234Z,3.90
2022-10-15T03:17:52.282Z,2.07
2022-10-15T03:19:55.956Z,4.20
2022-10-15T03:21:58.731Z,1.90
2022-10-15T03:24:07.870Z,3.07
2022-10-15T03:26:11.434Z,2.67
2022-10-15T03:28:14.614Z,1.60
2022-10-15T03:30:17.974Z,0.77
2022-10-15T03:32:21.774Z,1.00
2022-10-15T03:34:25.025Z,0.93
2022-10-15T03:36:27.894Z,2.63
2022-10-15T03:38:30.935Z,1.93
2022-10-15T03:40:36.911Z,1.50
2022-10-15T03:42:56.728Z,1.00
2022-10-15T03:45:00.971Z,2.03
2022-10-15T03:47:04.404Z,0.60
2022-10-15T03:49:17.079Z,0.87
2022-10-15T03:51:23.556Z,2.20
2022-10-15T03:53:32.795Z,2.17
2022-10-15T03:55:37.112Z,2.37
2022-10-15T03:57:42.158Z,2.60
2022-10-15T04:01:54.034Z,2.20
2022-10-15T04:03:56.790Z,1.80
2022-10-15T04:06:03.375Z,3.10
2022-10-15T04:08:07.494Z,1.70
2022-10-15T04:10:14.482Z,5.93
2022-10-15T04:12:19.438Z,2.10
2022-10-15T04:14:22.750Z,3.07
2022-10-15T04:16:25.576Z,1.40
2022-10-15T04:18:28.250Z,0.90
2022-10-15T04:20:32.278Z,0.33
2022-10-15T04:22:46.494Z,0.93
2022-10-15T04:24:50.460Z,0.30
2022-10-15T04:27:02.289Z,0.50
2022-10-15T04:29:06.421Z,2.40
2022-10-15T04:31:09.311Z,0.70
2022-10-15T04:33:12.080Z,2.87
2022-10-15T04:35:16.051Z,3.77
2022-10-15T04:37:34.978Z,1.23
2022-10-15T04:39:37.705Z,1.60
2022-10-15T04:41:40.522Z,0.80
2022-10-15T04:44:03.991Z,1.27
2022-10-15T04:46:10.258Z,1.07
2022-10-15T04:48:14.026Z,0.93
2022-10-15T04:50:17.066Z,0.97
2022-10-15T04:52:52.315Z,0.20
2022-10-15T04:54:55.097Z,0.73
2022-10-15T04:56:57.974Z,2.17
2022-10-15T04:59:01.056Z,1.30
2022-10-15T05:01:12.033Z,1.30
2022-10-15T05:03:39.805Z,0.57
2022-10-15T05:05:45.262Z,2.47
2022-10-15T05:07:48.055Z,1.73
2022-10-15T05:09:51.357Z,1.20
2022-10-15T05:11:55.837Z,1.47
2022-10-15T05:13:59.212Z,0.87
2022-10-15T05:16:12.379Z,1.87
2022-10-15T05:18:15.179Z,2.63
2022-10-15T05:20:24.779Z,1.70
2022-10-15T05:22:27.625Z,1.37
2022-10-15T05:24:34.321Z,2.60
2022-10-15T05:26:48.140Z,1.40
2022-10-15T05:28:52.816Z,2.17
2022-10-15T05:31:06.532Z,2.27
2022-10-15T05:33:10.588Z,5.33
2022-10-15T05:35:13.704Z,1.70
2022-10-15T05:37:28.371Z,1.20
2022-10-15T05:39:31.079Z,1.70
2022-10-15T05:41:34.967Z,1.73
2022-10-15T05:43:40.499Z,1.83
2022-10-15T05:45:48.092Z,1.03
2022-10-15T05:47:55.238Z,1.77
2022-10-15T05:49:59.403Z,2.43
2022-10-15T05:52:07.118Z,2.63
2022-10-15T05:54:33.911Z,1.47
2022-10-15T05:56:36.875Z,4.37
2022-10-15T05:58:39.871Z,10.83
2022-10-15T06:00:42.716Z,6.90
2022-10-15T06:02:45.569Z,2.30
2022-10-15T06:04:48.627Z,11.43
2022-10-15T06:06:52.677Z,1.57
2022-10-15T06:08:56.115Z,3.63
2022-10-15T06:11:06.757Z,4.47
2022-10-15T06:13:12.824Z,4.20
2022-10-15T06:15:15.659Z,4.50
2022-10-15T06:17:18.332Z,4.70
2022-10-15T06:19:25.209Z,13.50
2022-10-15T06:21:28.319Z,11.13
2022-10-15T06:23:32.695Z,6.20
2022-10-15T06:25:35.415Z,4.47
2022-10-15T06:27:38.209Z,3.70
2022-10-15T06:29:40.971Z,2.20
2022-10-15T06:31:43.693Z,1.70
2022-10-15T06:33:46.381Z,1.60
2022-10-15T06:35:49.940Z,2.40
2022-10-15T06:37:52.794Z,2.50
2022-10-15T06:39:56.820Z,1.17
2022-10-15T06:41:59.515Z,1.43
2022-10-15T06:44:14.042Z,2.97
2022-10-15T06:46:16.949Z,1.07
2022-10-15T06:48:19.847Z,0.57
2022-10-15T06:50:22.617Z,0.70
2022-10-15T06:52:25.501Z,3.23
2022-10-15T06:54:28.242Z,1.03
2022-10-15T06:56:32.329Z,0.87
2022-10-15T06:58:35.624Z,1.20
2022-10-15T07:00:38.289Z,1.30
2022-10-15T07:02:41.771Z,1.00
2022-10-15T07:04:44.900Z,1.10
2022-10-15T07:06:53.758Z,2.07
2022-10-15T07:09:02.615Z,1.73
2022-10-15T07:11:07.035Z,2.07
2022-10-15T07:13:11.502Z,1.40
2022-10-15T07:15:14.446Z,0.93
2022-10-15T07:17:17.778Z,3.83
2022-10-15T07:19:20.434Z,2.37
2022-10-15T07:21:23.914Z,1.23
2022-10-15T07:23:27.870Z,2.30
2022-10-15T07:25:31.035Z,2.27
2022-10-15T07:27:33.726Z,2.10
2022-10-15T07:29:38.145Z,1.97
2022-10-15T07:31:40.880Z,2.87
2022-10-15T07:33:44.135Z,1.80
2022-10-15T07:35:46.793Z,2.80
2022-10-15T07:37:50.702Z,5.77
2022-10-15T07:39:53.421Z,3.60
2022-10-15T07:41:56.090Z,1.73
2022-10-15T07:43:58.814Z,3.57
2022-10-15T07:46:03.147Z,1.00
2022-10-15T07:48:06.710Z,0.83
2022-10-15T07:50:10.322Z,0.80
2022-10-15T07:52:13.003Z,0.77
2022-10-15T07:54:15.690Z,0.73
2022-10-15T07:56:19.239Z,0.40
2022-10-15T07:58:21.944Z,0.20
2022-10-15T08:00:24.941Z,0.40
2022-10-15T08:02:29.072Z,1.30
2022-10-15T08:04:31.794Z,0.40
2022-10-15T08:06:34.508Z,0.90
2022-10-15T08:08:37.705Z,0.60
2022-10-15T08:10:40.881Z,4.07
2022-10-15T08:12:43.541Z,1.00
2022-10-15T08:14:46.221Z,1.37
2022-10-15T08:16:48.950Z,0.50
2022-10-15T08:21:01.520Z,1.30
2022-10-15T08:23:04.335Z,1.47
2022-10-15T08:25:07.471Z,0.77
2022-10-15T08:27:10.219Z,0.47
2022-10-15T08:29:13.545Z,0.67
2022-10-15T08:31:16.355Z,1.23
2022-10-15T08:33:19.136Z,0.53
2022-10-15T08:35:23.590Z,0.80
2022-10-15T08:37:26.598Z,0.20
2022-10-15T08:39:29.332Z,0.37
2022-10-15T08:41:36.284Z,0.50
2022-10-15T08:43:42.124Z,0.43
2022-10-15T08:45:53.524Z,4.13
2022-10-15T08:47:59.828Z,0.50
2022-10-15T08:50:05.145Z,1.37
2022-10-15T08:52:18.329Z,0.40
2022-10-15T08:54:21.361Z,1.47
2022-10-15T08:56:30.567Z,0.30
2022-10-15T08:58:45.464Z,0.50
2022-10-15T09:00:51.901Z,0.20
2022-10-15T09:03:01.424Z,1.03
2022-10-15T09:05:22.599Z,1.50
2022-10-15T09:07:36.359Z,0.70
2022-10-15T09:09:48.310Z,2.17
2022-10-15T09:12:00.261Z,0.80
2022-10-15T09:14:10.943Z,1.80
2022-10-15T09:16:17.010Z,2.17
2022-10-15T09:18:24.476Z,0.87
2022-10-15T09:20:33.097Z,1.70
2022-10-15T09:22:37.481Z,1.47
2022-10-15T09:24:40.416Z,0.60
2022-10-15T09:26:55.924Z,2.40
2022-10-15T09:29:04.818Z,1.33
2022-10-15T09:31:10.430Z,2.50
2022-10-15T09:33:23.995Z,1.77
2022-10-15T09:35:31.212Z,3.43
2022-10-15T09:37:44.216Z,0.77
2022-10-15T09:40:08.397Z,3.47
2022-10-15T09:42:26.141Z,1.10
2022-10-15T09:44:35.292Z,3.90
2022-10-15T09:46:44.939Z,1.63
2022-10-15T09:48:52.024Z,2.43
2022-10-15T09:50:59.487Z,1.93
2022-10-15T09:53:15.557Z,1.87
2022-10-15T09:55:31.190Z,3.70
2022-10-15T09:57:35.894Z,2.17
2022-10-15T09:59:38.605Z,2.80
2022-10-15T10:01:41.511Z,2.10
2022-10-15T10:03:44.269Z,2.70
2022-10-15T10:05:47.135Z,2.90
2022-10-15T10:07:50.824Z,4.87
2022-10-15T10:09:57.053Z,1.90
2022-10-15T10:12:01.718Z,3.00
2022-10-15T10:14:05.534Z,2.07
2022-10-15T10:16:11.162Z,1.50
2022-10-15T10:18:21.010Z,2.20
2022-10-15T10:20:26.484Z,4.23
2022-10-15T10:22:29.190Z,1.67
2022-10-15T10:24:34.414Z,3.27
2022-10-15T10:26:38.667Z,3.27
2022-10-15T10:28:57.134Z,2.43
2022-10-15T10:31:09.935Z,1.67
2022-10-15T10:33:15.945Z,1.53
2022-10-15T10:35:22.805Z,3.20
2022-10-15T10:37:26.072Z,4.03
2022-10-15T10:39:31.534Z,2.67
2022-10-15T10:41:53.357Z,2.60
2022-10-15T10:43:57.017Z,2.43
2022-10-15T10:46:05.065Z,2.83
2022-10-15T10:48:38.353Z,5.20
2022-10-15T10:50:41.195Z,3.37
2022-10-15T10:52:43.850Z,3.10
2022-10-15T10:54:47.960Z,6.37
2022-10-15T10:56:53.721Z,5.37
2022-10-15T10:59:01.153Z,9.53
2022-10-15T11:01:04.231Z,7.13
2022-10-15T11:03:07.704Z,4.80
2022-10-15T11:05:12.717Z,1.97
2022-10-15T11:07:22.823Z,0.90
2022-10-15T11:09:46.820Z,1.37
2022-10-15T11:12:05.653Z,1.53
2022-10-15T11:14:20.128Z,1.33
2022-10-15T11:16:35.891Z,2.00
2022-10-15T11:18:56.096Z,3.37
2022-10-15T11:21:08.452Z,1.00
2022-10-15T11:23:27.518Z,1.00
2022-10-15T11:25:40.345Z,3.67
2022-10-15T11:28:02.488Z,0.57
2022-10-15T11:30:17.759Z,1.10
2022-10-15T11:33:05.441Z,3.00
2022-10-15T11:35:40.929Z,4.53
2022-10-15T11:37:52.452Z,18.17
2022-10-15T11:40:07.573Z,7.73
2022-10-15T11:42:20.150Z,8.50
2022-10-15T11:44:34.879Z,15.53
2022-10-15T11:46:50.610Z,4.50
2022-10-15T11:49:14.255Z,2.40
2022-10-15T11:51:27.565Z,1.20
2022-10-15T11:53:44.543Z,1.23
2022-10-15T11:55:53.778Z,1.60
2022-10-15T11:58:03.041Z,0.63
2022-10-15T12:00:20.193Z,1.50
2022-10-15T12:02:30.237Z,3.80
2022-10-15T12:04:39.591Z,2.73
2022-10-15T12:06:49.511Z,2.33
2022-10-15T12:08:54.767Z,1.60
2022-10-15T12:11:15.126Z,3.50
2022-10-15T12:13:27.388Z,2.40
2022-10-15T12:15:37.904Z,1.50
2022-10-15T12:17:47.858Z,3.50
2022-10-15T12:19:55.954Z,2.10
2022-10-15T12:22:10.822Z,1.40
2022-10-15T12:24:52.410Z,2.10
2022-10-15T12:26:55.171Z,2.20
2022-10-15T12:29:02.271Z,3.43
2022-10-15T12:31:07.780Z,2.33
2022-10-15T12:33:26.529Z,3.17
2022-10-15T12:35:36.561Z,2.03
2022-10-15T12:37:39.271Z,1.47
2022-10-15T12:39:59.280Z,3.03
2022-10-15T12:42:03.458Z,3.33
2022-10-15T12:44:10.113Z,2.27
2022-10-15T12:46:15.248Z,1.30
2022-10-15T12:48:31.977Z,1.20
2022-10-15T12:50:37.295Z,1.17
2022-10-15T12:53:00.751Z,1.23
2022-10-15T12:55:22.546Z,1.47
2022-10-15T12:57:53.593Z,1.97
2022-10-15T12:59:58.995Z,3.37
2022-10-15T13:02:03.291Z,1.60
2022-10-15T13:04:06.359Z,0.67
2022-10-15T13:06:31.489Z,2.63
2022-10-15T13:08:34.165Z,0.80
2022-10-15T13:10:42.589Z,1.60
2022-10-15T13:12:45.450Z,1.30
2022-10-15T13:14:55.595Z,0.50
2022-10-15T13:16:59.133Z,1.57
2022-10-15T13:19:04.812Z,0.63
2022-10-15T13:21:11.406Z,0.60
2022-10-15T13:23:30.241Z,0.60
2022-10-15T13:25:33.895Z,0.83
2022-10-15T13:27:38.324Z,1.30
2022-10-15T13:29:41.027Z,0.77
2022-10-15T13:31:45.012Z,1.00
2022-10-15T13:33:52.051Z,0.57
2022-10-15T13:35:56.349Z,0.87
2022-10-15T13:38:00.566Z,2.40
2022-10-15T13:40:07.913Z,0.97
2022-10-15T13:42:19.853Z,0.80
2022-10-15T13:44:24.201Z,1.23
2022-10-15T13:46:27.791Z,2.27
2022-10-15T13:48:32.745Z,1.90
2022-10-15T13:50:36.981Z,1.30
2022-10-15T13:52:42.475Z,1.80
2022-10-15T13:54:47.693Z,2.43
2022-10-15T13:56:55.632Z,2.07
2022-10-15T13:59:00.981Z,4.07
2022-10-15T14:01:09.942Z,0.90
2022-10-15T14:03:18.547Z,2.53
2022-10-15T14:05:24.709Z,3.90
2022-10-15T14:07:28.332Z,2.00
2022-10-15T14:09:34.783Z,1.73
2022-10-15T14:11:39.480Z,1.30
2022-10-15T14:13:46.328Z,2.03
2022-10-15T14:16:00.553Z,1.03
2022-10-15T14:18:03.570Z,2.77
2022-10-15T14:20:26.747Z,1.00
2022-10-15T14:22:31.814Z,2.80
2022-10-15T14:24:38.479Z,1.60
2022-10-15T14:26:41.526Z,1.47
2022-10-15T14:28:50.876Z,1.20
2022-10-15T14:30:54.296Z,6.27
2022-10-15T14:32:57.108Z,4.40
2022-10-15T14:35:00.988Z,4.33
2022-10-15T14:37:04.531Z,0.80
2022-10-15T14:39:29.364Z,4.07
2022-10-15T14:41:34.369Z,2.80
2022-10-15T14:43:38.186Z,1.83
2022-10-15T14:45:43.401Z,2.43
2022-10-15T14:47:47.335Z,2.37
2022-10-15T14:49:51.918Z,1.60
2022-10-15T14:51:56.891Z,3.77
2022-10-15T14:54:00.725Z,2.57
2022-10-15T14:56:07.002Z,4.43
2022-10-15T14:58:17.864Z,4.47
2022-10-15T15:00:28.808Z,2.07
2022-10-15T15:02:32.008Z,1.00
2022-10-15T15:04:37.089Z,3.03
2022-10-15T15:06:39.702Z,2.57
2022-10-15T15:08:42.461Z,2.90
2022-10-15T15:12:57.108Z,0.73
2022-10-15T15:15:01.465Z,1.13
2022-10-15T15:17:04.244Z,1.97
2022-10-15T15:19:09.667Z,1.23
2022-10-15T15:21:15.856Z,0.63
2022-10-15T15:23:23.033Z,1.00
2022-10-15T15:25:30.009Z,1.23
2022-10-15T15:27:37.344Z,0.73
2022-10-15T15:29:42.010Z,2.10
2022-10-15T15:31:47.095Z,3.27
2022-10-15T15:33:49.776Z,1.47
2022-10-15T15:35:55.101Z,0.73
2022-10-15T15:37:57.859Z,1.13
2022-10-15T15:40:00.538Z,1.47
2022-10-15T15:42:03.166Z,0.90
2022-10-15T15:44:07.365Z,1.60
2022-10-15T15:46:10.684Z,1.43
2022-10-15T15:48:14.720Z,2.00
2022-10-15T15:50:18.898Z,1.93
2022-10-15T15:52:21.551Z,2.93
2022-10-15T15:54:24.264Z,2.13
2022-10-15T15:56:27.032Z,1.23
2022-10-15T15:58:29.976Z,2.93
2022-10-15T16:00:32.726Z,2.57
2022-10-15T16:02:35.431Z,1.80
2022-10-15T16:04:39.492Z,1.63
2022-10-15T16:06:42.648Z,4.80
2022-10-15T16:08:45.499Z,1.20
2022-10-15T16:10:48.679Z,2.60
2022-10-15T16:12:53.236Z,4.63
2022-10-15T16:17:04.459Z,1.03
2022-10-15T16:19:09.720Z,2.77
2022-10-15T16:21:13.729Z,1.13
2022-10-15T16:23:16.913Z,3.17
2022-10-15T16:25:20.108Z,3.00
2022-10-15T16:27:23.739Z,8.93
2022-10-15T16:29:26.871Z,9.43
2022-10-15T16:31:32.232Z,2.87
2022-10-15T16:33:34.943Z,3.03
2022-10-15T16:35:37.679Z,6.80
2022-10-15T16:37:43.371Z,2.07
2022-10-15T16:39:46.046Z,1.40
2022-10-15T16:41:48.766Z,1.90
2022-10-15T16:43:51.555Z,4.93
2022-10-15T16:45:56.346Z,3.37
2022-10-15T16:47:59.006Z,3.53
2022-10-15T16:50:02.553Z,2.43
2022-10-15T16:52:05.639Z,2.03
2022-10-15T16:54:11.927Z,2.23
2022-10-15T16:56:16.552Z,6.17
2022-10-15T16:58:19.458Z,2.20
2022-10-15T17:00:22.302Z,2.40
2022-10-15T17:02:25.389Z,3.03
2022-10-15T17:04:28.578Z,2.00
2022-10-15T17:06:32.095Z,3.67
2022-10-15T17:08:39.569Z,2.43
2022-10-15T17:10:46.657Z,2.13
2022-10-15T17:12:49.615Z,2.60
2022-10-15T17:14:52.399Z,2.00
2022-10-15T17:16:55.139Z,3.90
2022-10-15T17:18:58.838Z,2.00
2022-10-15T17:21:01.576Z,3.83
2022-10-15T17:23:04.313Z,3.00
2022-10-15T17:25:07.553Z,3.13
2022-10-15T17:27:11.618Z,3.03
2022-10-15T17:29:20.151Z,2.63
2022-10-15T17:31:25.488Z,2.27
2022-10-15T17:33:28.216Z,2.97
2022-10-15T17:35:35.885Z,4.23
2022-10-15T17:37:39.796Z,5.17
2022-10-15T17:39:42.583Z,6.63
2022-10-15T17:41:45.783Z,3.73
2022-10-15T17:43:50.331Z,5.00
2022-10-15T17:45:59.673Z,1.87
2022-10-15T17:48:02.388Z,3.50
2022-10-15T17:50:05.740Z,3.37
2022-10-15T17:52:08.609Z,1.43
2022-10-15T17:54:11.487Z,3.10
2022-10-15T17:56:16.007Z,1.77
2022-10-15T17:58:20.131Z,1.50
2022-10-15T18:00:24.210Z,3.83
2022-10-15T18:02:26.985Z,2.37
2022-10-15T18:04:30.383Z,3.30
2022-10-15T18:06:33.200Z,2.20
2022-10-15T18:08:35.882Z,2.33
2022-10-15T18:10:38.805Z,2.40
2022-10-15T18:12:41.838Z,7.27
2022-10-15T18:14:44.513Z,4.17
2022-10-15T18:16:48.584Z,3.53
2022-10-15T18:18:52.970Z,3.00
2022-10-15T18:20:56.460Z,5.23
2022-10-15T18:23:01.558Z,3.20
2022-10-15T18:25:05.114Z,2.50
2022-10-15T18:27:07.862Z,4.53
2022-10-15T18:29:11.167Z,3.00
2022-10-15T18:31:15.389Z,5.53
2022-10-15T18:33:19.520Z,7.30
2022-10-15T18:35:22.384Z,7.17
2022-10-15T18:37:25.311Z,6.67
2022-10-15T18:39:28.497Z,8.00
2022-10-15T18:41:35.649Z,4.83
2022-10-15T18:43:38.321Z,2.47
2022-10-15T18:45:41.013Z,4.73
2022-10-15T18:47:43.801Z,1.90
2022-10-15T18:49:47.778Z,4.47
2022-10-15T18:51:52.924Z,2.23
2022-10-15T18:53:58.093Z,4.00
2022-10-15T18:56:00.847Z,1.70
2022-10-15T18:58:03.527Z,2.23
2022-10-15T19:00:12.724Z,2.10
2022-10-15T19:02:15.522Z,2.83
2022-10-15T19:04:20.061Z,2.10
2022-10-15T19:06:29.247Z,3.03
2022-10-15T19:08:31.895Z,3.17
2022-10-15T19:10:34.567Z,2.67
2022-10-15T19:12:37.244Z,2.73
2022-10-15T19:14:39.912Z,3.03
2022-10-15T19:16:45.131Z,1.93
2022-10-15T19:18:47.884Z,3.07
2022-10-15T19:20:50.548Z,2.47
2022-10-15T19:22:54.585Z,2.87
2022-10-15T19:24:57.666Z,3.20
2022-10-15T19:27:00.482Z,2.47
2022-10-15T19:29:03.422Z,2.80
2022-10-15T19:31:08.577Z,3.23
2022-10-15T19:33:11.919Z,6.23
2022-10-15T19:35:14.797Z,2.80
2022-10-15T19:37:17.491Z,2.83
2022-10-15T19:39:25.342Z,3.73
2022-10-15T19:41:28.105Z,2.87
2022-10-15T19:43:31.342Z,1.67
2022-10-15T19:45:37.367Z,2.20
2022-10-15T19:47:40.111Z,4.47
2022-10-15T19:49:42.910Z,5.27
2022-10-15T19:51:47.865Z,3.83
2022-10-15T19:53:52.042Z,4.97
2022-10-15T19:56:01.376Z,6.50
2022-10-15T19:58:04.157Z,4.00
2022-10-15T20:00:08.258Z,3.13
2022-10-15T20:02:15.228Z,6.97
2022-10-15T20:04:17.929Z,6.67
2022-10-15T20:06:21.632Z,3.73
2022-10-15T20:08:25.545Z,3.43
2022-10-15T20:10:28.233Z,2.50
2022-10-15T20:12:32.402Z,3.57
2022-10-15T20:14:35.589Z,2.67
2022-10-15T20:16:38.989Z,2.10
2022-10-15T20:18:42.227Z,2.53
2022-10-15T20:20:46.430Z,1.80
2022-10-15T20:22:49.288Z,2.70
2022-10-15T20:24:52.016Z,3.27
2022-10-15T20:26:54.687Z,7.87
2022-10-15T20:28:59.078Z,4.37
2022-10-15T20:31:05.953Z,4.03
2022-10-15T20:33:10.045Z,3.37
2022-10-15T20:35:14.969Z,5.10
2022-10-15T20:37:17.755Z,6.43
2022-10-15T20:39:21.164Z,6.27
2022-10-15T20:41:23.907Z,8.33
2022-10-15T20:43:26.752Z,6.80
2022-10-15T20:45:39.160Z,7.30
2022-10-15T20:47:44.890Z,7.00
2022-10-15T20:49:51.549Z,5.03
2022-10-15T20:51:54.344Z,3.77
2022-10-15T20:54:00.010Z,4.00
2022-10-15T20:56:02.833Z,6.97
2022-10-15T20:58:06.826Z,4.73
2022-10-15T21:00:10.932Z,14.60
2022-10-15T21:02:15.034Z,11.03
2022-10-15T21:04:19.270Z,10.07
2022-10-15T21:06:22.053Z,18.03
2022-10-15T21:08:25.089Z,8.70
2022-10-15T21:10:27.789Z,7.83
2022-10-15T21:12:30.639Z,7.27
2022-10-15T21:14:34.649Z,6.03
2022-10-15T21:16:37.348Z,3.47
2022-10-15T21:18:41.465Z,6.50
2022-10-15T21:20:44.295Z,9.83
2022-10-15T21:22:46.964Z,9.17
2022-10-15T21:24:49.869Z,8.63
2022-10-15T21:26:52.837Z,6.77
2022-10-15T21:28:56.407Z,6.70
2022-10-15T21:30:59.423Z,7.73
2022-10-15T21:33:02.111Z,9.10
2022-10-15T21:35:07.233Z,7.53
2022-10-15T21:37:09.969Z,11.47
2022-10-15T21:39:13.406Z,5.07
2022-10-15T21:41:17.385Z,5.50
2022-10-15T21:43:20.090Z,6.37
2022-10-15T21:45:22.778Z,21.87
2022-10-15T21:47:26.391Z,12.33
2022-10-15T21:49:29.320Z,37.63
2022-10-15T21:51:34.305Z,18.30
2022-10-15T21:53:37.710Z,13.10
2022-10-15T21:55:40.562Z,32.37
2022-10-15T21:57:43.240Z,18.40
2022-10-15T21:59:46.007Z,17.27
2022-10-15T22:01:48.768Z,10.20
2022-10-15T22:03:53.347Z,5.40
2022-10-15T22:05:56.035Z,2.27
2022-10-15T22:08:00.326Z,3.23
2022-10-15T22:10:03.598Z,2.97
2022-10-15T22:12:06.766Z,3.70
2022-10-15T22:14:12.326Z,2.77
2022-10-15T22:16:17.106Z,4.87
2022-10-15T22:18:20.579Z,5.63
2022-10-15T22:20:25.740Z,3.67
2022-10-15T22:22:28.657Z,3.53
2022-10-15T22:24:33.083Z,3.03
2022-10-15T22:26:38.550Z,2.53
2022-10-15T22:28:41.493Z,3.67
2022-10-15T22:30:44.310Z,6.13
2022-10-15T22:32:46.998Z,4.47
2022-10-15T22:34:49.698Z,2.70
2022-10-15T22:36:52.854Z,4.50
2022-10-15T22:38:57.883Z,4.57
2022-10-15T22:41:03.017Z,2.33
2022-10-15T22:43:05.768Z,5.50
2022-10-15T22:45:09.262Z,7.80
2022-10-15T22:47:11.978Z,4.40
2022-10-15T22:49:15.270Z,4.20
2022-10-15T22:51:18.169Z,4.30
2022-10-15T22:53:20.894Z,3.47
2022-10-15T22:55:23.623Z,4.53
2022-10-15T22:57:27.755Z,10.03
2022-10-15T22:59:30.434Z,13.03
2022-10-15T23:01:37.020Z,4.00
2022-10-15T23:03:41.034Z,3.40
2022-10-15T23:05:43.759Z,2.57
2022-10-15T23:07:46.458Z,3.60
2022-10-15T23:09:49.664Z,3.13
2022-10-15T23:11:52.365Z,10.30
2022-10-15T23:13:58.534Z,14.37
2022-10-15T23:16:11.783Z,12.00
2022-10-15T23:18:14.511Z,8.50
2022-10-15T23:20:17.210Z,5.23
2022-10-15T23:22:19.963Z,5.57
2022-10-15T23:24:23.950Z,6.50
2022-10-15T23:26:26.731Z,4.13
2022-10-15T23:28:29.461Z,3.80
2022-10-15T23:30:33.575Z,3.50
2022-10-15T23:32:36.241Z,3.47
2022-10-15T23:34:38.952Z,3.20
2022-10-15T23:36:41.761Z,6.53
2022-10-15T23:38:44.462Z,3.60
2022-10-15T23:40:47.116Z,4.53
2022-10-15T23:42:49.908Z,5.10
2022-10-15T23:44:52.585Z,2.80
2022-10-15T23:46:56.607Z,2.60
2022-10-15T23:48:59.301Z,2.13
2022-10-15T23:51:03.641Z,3.70
2022-10-15T23:53:06.832Z,5.27
2022-10-15T23:55:10.065Z,7.30
2022-10-15T23:57:12.696Z,6.03
2022-10-15T23:59:16.626Z,4.53
